createdAt,value
2022-11-06T00:01:53.145Z,9.50
2022-11-06T00:06:58.019Z,9.50
2022-11-06T00:12:01.534Z,9.50
2022-11-06T00:17:05.155Z,9.40
2022-11-06T00:22:09.871Z,9.40
2022-11-06T00:27:13.505Z,9.30
2022-11-06T00:32:16.896Z,9.30
2022-11-06T00:37:21.646Z,9.30
2022-11-06T00:42:25.030Z,9.20
2022-11-06T00:47:28.403Z,9.20
2022-11-06T00:52:33.419Z,9.20
2022-11-06T00:57:36.822Z,9.20
2022-11-06T01:02:40.708Z,9.20
2022-11-06T01:07:45.499Z,9.20
2022-11-06T01:12:48.893Z,9.10
2022-11-06T01:17:52.307Z,9.10
2022-11-06T01:22:57.044Z,9.00
2022-11-06T01:28:00.441Z,9.00
2022-11-06T01:33:03.944Z,8.90
2022-11-06T01:38:08.681Z,8.80
2022-11-06T01:43:16.959Z,8.80
2022-11-06T01:48:24.475Z,8.80
2022-11-06T01:53:29.567Z,8.70
2022-11-06T01:58:35.481Z,8.60
2022-11-06T02:03:40.668Z,8.60
2022-11-06T02:08:45.515Z,8.50
2022-11-06T02:13:56.663Z,8.40
2022-11-06T02:19:21.354Z,8.40
2022-11-06T02:24:56.326Z,8.40
2022-11-06T02:30:05.465Z,8.30
2022-11-06T02:35:19.412Z,8.30
2022-11-06T02:40:25.981Z,8.30
2022-11-06T02:45:33.793Z,8.20
2022-11-06T02:50:45.526Z,8.10
2022-11-06T02:55:52.662Z,8.10
2022-11-06T03:01:02.377Z,8.10
2022-11-06T03:06:11.532Z,8.10
2022-11-06T03:11:18.282Z,8.20
2022-11-06T03:16:32.923Z,8.10
2022-11-06T03:21:44.431Z,8.10
2022-11-06T03:26:52.285Z,8.00
2022-11-06T03:32:02.512Z,8.00
2022-11-06T03:37:11.347Z,8.00
2022-11-06T03:42:18.323Z,7.90
2022-11-06T03:47:28.414Z,7.90
2022-11-06T03:52:36.635Z,7.90
2022-11-06T03:57:44.264Z,7.90
2022-11-06T04:03:04.765Z,7.80
2022-11-06T04:08:28.451Z,7.70
2022-11-06T04:13:52.433Z,7.70
2022-11-06T04:18:57.109Z,7.70
2022-11-06T04:24:39.959Z,7.70
2022-11-06T04:29:55.795Z,7.70
2022-11-06T04:35:06.972Z,7.60
2022-11-06T04:40:14.223Z,7.60
2022-11-06T04:45:24.718Z,7.60
2022-11-06T04:50:31.784Z,7.60
2022-11-06T04:55:45.772Z,7.60
2022-11-06T05:00:51.521Z,7.60
2022-11-06T05:05:56.298Z,7.50
2022-11-06T05:10:59.674Z,7.50
2022-11-06T05:16:03.120Z,7.40
2022-11-06T05:21:25.542Z,7.40
2022-11-06T05:26:28.928Z,7.40
2022-11-06T05:31:35.213Z,7.30
2022-11-06T05:36:39.972Z,7.30
2022-11-06T05:41:43.414Z,7.30
2022-11-06T05:46:49.531Z,7.30
2022-11-06T05:51:54.716Z,7.30
2022-11-06T05:56:58.320Z,7.20
2022-11-06T06:02:01.825Z,7.20
2022-11-06T06:07:06.594Z,7.20
2022-11-06T06:12:12.066Z,7.20
2022-11-06T06:17:15.730Z,7.20
2022-11-06T06:22:20.466Z,7.20
2022-11-06T06:27:25.862Z,7.20
2022-11-06T06:32:29.204Z,7.20
2022-11-06T06:37:34.240Z,7.20
2022-11-06T06:42:37.611Z,7.30
2022-11-06T06:47:41.036Z,7.30
2022-11-06T06:52:45.824Z,7.30
2022-11-06T06:57:49.260Z,7.30
2022-11-06T07:02:52.675Z,7.20
2022-11-06T07:07:58.070Z,7.30
2022-11-06T07:13:02.621Z,7.30
2022-11-06T07:18:07.172Z,7.30
2022-11-06T07:23:11.920Z,7.30
2022-11-06T07:28:15.957Z,7.40
2022-11-06T07:33:19.816Z,7.40
2022-11-06T07:38:24.479Z,7.40
2022-11-06T07:43:27.884Z,7.50
2022-11-06T07:48:32.156Z,7.50
2022-11-06T07:53:38.227Z,7.60
2022-11-06T07:58:41.688Z,7.70
2022-11-06T08:03:45.305Z,7.70
2022-11-06T08:08:51.839Z,7.70
2022-11-06T08:14:00.469Z,7.80
2022-11-06T08:19:04.048Z,7.80
2022-11-06T08:24:09.035Z,7.90
2022-11-06T08:29:12.365Z,8.10
2022-11-06T08:34:15.817Z,8.10
2022-11-06T08:39:20.522Z,8.30
2022-11-06T08:44:25.294Z,8.40
2022-11-06T08:49:28.653Z,8.50
2022-11-06T08:54:33.370Z,8.60
2022-11-06T08:59:37.817Z,8.70
2022-11-06T09:04:41.713Z,8.80
2022-11-06T09:09:46.416Z,8.90
2022-11-06T09:14:49.784Z,9.10
2022-11-06T09:19:53.204Z,9.20
2022-11-06T09:25:03.616Z,9.30
2022-11-06T09:30:08.841Z,9.40
2022-11-06T09:35:12.199Z,9.60
2022-11-06T09:40:22.621Z,9.70
2022-11-06T09:45:28.987Z,9.80
2022-11-06T09:50:36.669Z,10.00
2022-11-06T09:55:44.165Z,10.10
2022-11-06T10:00:49.019Z,10.30
2022-11-06T10:05:54.955Z,10.40
2022-11-06T10:11:05.519Z,10.60
2022-11-06T10:16:15.546Z,10.70
2022-11-06T10:21:25.932Z,10.90
2022-11-06T10:26:37.875Z,11.10
2022-11-06T10:31:52.180Z,11.20
2022-11-06T10:37:01.825Z,11.40
2022-11-06T10:42:12.370Z,11.60
2022-11-06T10:47:20.582Z,11.70
2022-11-06T10:52:46.973Z,11.80
2022-11-06T10:57:57.397Z,12.00
2022-11-06T11:03:02.458Z,12.10
2022-11-06T11:08:06.110Z,12.30
2022-11-06T11:13:21.610Z,12.30
2022-11-06T11:18:31.060Z,12.50
2022-11-06T11:23:34.490Z,12.60
2022-11-06T11:28:41.109Z,12.70
2022-11-06T11:33:52.394Z,12.90
2022-11-06T11:38:56.051Z,13.00
2022-11-06T11:44:08.036Z,13.10
2022-11-06T11:49:27.552Z,13.20
2022-11-06T11:54:34.316Z,13.30
2022-11-06T11:59:46.178Z,13.50
2022-11-06T12:04:53.228Z,13.60
2022-11-06T12:09:57.033Z,13.80
2022-11-06T12:15:17.676Z,13.90
2022-11-06T12:20:25.369Z,14.00
2022-11-06T12:25:34.224Z,14.10
2022-11-06T12:30:42.866Z,14.20
2022-11-06T12:35:50.389Z,14.30
2022-11-06T12:41:00.330Z,14.30
2022-11-06T12:46:26.808Z,14.40
2022-11-06T12:51:42.612Z,14.50
2022-11-06T12:56:55.683Z,14.60
2022-11-06T13:02:05.639Z,14.70
2022-11-06T13:07:41.876Z,14.80
2022-11-06T13:12:55.126Z,14.90
2022-11-06T13:18:07.164Z,15.00
2022-11-06T13:23:17.732Z,15.10
2022-11-06T13:28:30.743Z,15.20
2022-11-06T13:33:37.390Z,15.30
2022-11-06T13:38:44.292Z,15.30
2022-11-06T13:43:53.791Z,15.30
2022-11-06T13:49:09.951Z,15.40
2022-11-06T13:54:23.247Z,15.30
2022-11-06T13:59:41.515Z,15.20
2022-11-06T14:05:25.490Z,15.10
2022-11-06T14:10:34.699Z,15.00
2022-11-06T14:15:41.951Z,14.90
2022-11-06T14:20:46.939Z,14.80
2022-11-06T14:26:01.476Z,14.70
2022-11-06T14:31:12.360Z,14.60
2022-11-06T14:36:33.244Z,14.40
2022-11-06T14:41:54.404Z,14.40
2022-11-06T14:47:00.699Z,14.30
2022-11-06T14:52:08.229Z,14.20
2022-11-06T14:57:19.575Z,14.10
2022-11-06T15:02:25.692Z,14.00
2022-11-06T15:08:15.662Z,13.90
2022-11-06T15:13:33.135Z,13.80
2022-11-06T15:18:37.633Z,13.70
2022-11-06T15:23:44.132Z,13.60
2022-11-06T15:28:57.134Z,13.50
2022-11-06T15:34:03.546Z,13.40
2022-11-06T15:39:32.638Z,13.30
2022-11-06T15:44:41.184Z,13.20
2022-11-06T15:49:44.824Z,13.10
2022-11-06T15:54:49.248Z,13.00
2022-11-06T16:00:09.242Z,13.00
2022-11-06T16:05:12.889Z,12.90
2022-11-06T16:10:17.519Z,12.90
2022-11-06T16:15:47.689Z,12.80
2022-11-06T16:20:54.178Z,12.70
2022-11-06T16:26:08.822Z,12.60
2022-11-06T16:31:18.938Z,12.50
2022-11-06T16:36:22.929Z,12.40
2022-11-06T16:42:00.840Z,12.30
2022-11-06T16:47:17.376Z,12.20
2022-11-06T16:52:24.261Z,12.10
2022-11-06T16:57:30.426Z,12.00
2022-11-06T17:02:38.003Z,11.90
2022-11-06T17:07:42.274Z,11.80
2022-11-06T17:12:45.866Z,11.70
2022-11-06T17:17:55.120Z,11.70
2022-11-06T17:22:58.637Z,11.60
2022-11-06T17:28:02.023Z,11.50
2022-11-06T17:33:06.947Z,11.40
2022-11-06T17:38:13.704Z,11.40
2022-11-06T17:43:17.708Z,11.30
2022-11-06T17:48:22.890Z,11.20
2022-11-06T17:53:26.266Z,11.10
2022-11-06T17:58:29.641Z,11.00
2022-11-06T18:03:36.681Z,11.00
2022-11-06T18:08:40.663Z,10.90
2022-11-06T18:13:45.346Z,10.80
2022-11-06T18:18:50.396Z,10.70
2022-11-06T18:23:53.810Z,10.70
2022-11-06T18:28:57.400Z,10.60
2022-11-06T18:34:03.467Z,10.60
2022-11-06T18:39:08.030Z,10.50
2022-11-06T18:44:11.504Z,10.40
2022-11-06T18:49:16.624Z,10.40
2022-11-06T18:54:21.269Z,10.30
2022-11-06T18:59:24.763Z,10.30
2022-11-06T19:04:29.597Z,10.20
2022-11-06T19:09:33.076Z,10.30
2022-11-06T19:14:37.498Z,10.20
2022-11-06T19:19:43.416Z,10.20
2022-11-06T19:24:47.329Z,10.10
2022-11-06T19:29:51.542Z,10.10
2022-11-06T19:34:56.876Z,10.00
2022-11-06T19:40:05.401Z,9.90
2022-11-06T19:45:10.908Z,9.90
2022-11-06T19:50:17.579Z,9.90
2022-11-06T19:55:27.892Z,9.90
2022-11-06T20:00:31.510Z,9.80
2022-11-06T20:05:40.297Z,9.80
2022-11-06T20:10:44.247Z,9.70
2022-11-06T20:15:48.065Z,9.70
2022-11-06T20:20:52.896Z,9.70
2022-11-06T20:25:57.984Z,9.60
2022-11-06T20:31:06.320Z,9.60
2022-11-06T20:36:13.147Z,9.50
2022-11-06T20:41:17.944Z,9.50
2022-11-06T20:46:22.494Z,9.50
2022-11-06T20:51:29.410Z,9.50
2022-11-06T20:56:32.826Z,9.50
2022-11-06T21:01:36.347Z,9.40
2022-11-06T21:06:41.370Z,9.30
2022-11-06T21:11:44.851Z,9.30
2022-11-06T21:16:48.956Z,9.30
2022-11-06T21:21:56.743Z,9.30
2022-11-06T21:27:00.411Z,9.30
2022-11-06T21:32:03.813Z,9.20
2022-11-06T21:37:08.544Z,9.20
2022-11-06T21:42:12.002Z,9.20
2022-11-06T21:47:15.683Z,9.10
2022-11-06T21:52:38.642Z,9.10
2022-11-06T21:57:42.012Z,9.00
2022-11-06T22:02:45.772Z,8.90
2022-11-06T22:07:50.669Z,8.90
2022-11-06T22:12:54.551Z,8.90
2022-11-06T22:17:58.021Z,8.90
2022-11-06T22:23:02.797Z,8.90
2022-11-06T22:28:06.594Z,8.80
2022-11-06T22:33:10.467Z,8.80
2022-11-06T22:38:15.445Z,8.70
2022-11-06T22:43:18.867Z,8.60
2022-11-06T22:48:22.774Z,8.50
2022-11-06T22:53:27.499Z,8.50
2022-11-06T22:58:32.097Z,8.50
2022-11-06T23:03:35.889Z,8.60
2022-11-06T23:08:46.567Z,8.50
2022-11-06T23:13:51.112Z,8.40
2022-11-06T23:18:54.852Z,8.40
2022-11-06T23:23:59.582Z,8.50
2022-11-06T23:29:03.447Z,8.50
2022-11-06T23:34:06.910Z,8.50
2022-11-06T23:39:11.707Z,8.50
2022-11-06T23:44:32.789Z,8.50
2022-11-06T23:49:36.425Z,8.50
2022-11-06T23:54:41.548Z,8.50
2022-11-06T23:59:44.957Z,8.40
